ケープタウン の空港の天気 - METARとTAF

ケープタウン国際空港 ( FACT / CPT ) - 南アフリカ ケープタウン
飛行場実況気象(Metar)
観測時間08/17 13:00 SAST (08/17 11:00 UTC)
風向・風速西南西 2m/s
視程10km以上
天気現象
なし
気温22℃
湿度41%
気圧1019hPa
METARFACT 171100Z 25004KT 200V300 CAVOK 22/08 Q1019 NOSIG
過去の天気等 Google飛行場航空写真 Wunderground天気予報

過去48時間のMETAR

飛行場予報(TAF)
発表時間: 8/17 12:00 SAST (8/17 10:00 UTC)
予報対象時間: 17日14時 SAST ~ 18日20時 SAST
風向・風速南 5m/s
視程10km以上
なし
18日0時 SAST ~ 18日2時 SAST に徐々に
風向・風速北 3m/s
18日4時 SAST ~ 18日8時 SAST に 確率 30% で一時的に
視程2000m
天気現象散在した霧
全天の8割程度の雲 雲底高度 90m
18日14時 SAST から
風向・風速北北西 7m/s
視程10km以上
全天の8割程度の雲 雲底高度 760m
TAF FACT 171000Z 1712/1818 17010KT CAVOK TX20/1812Z TN11/1806Z
BECMG 1722/1724 35005KT
PROB30 TEMPO 1802/1806 2000 BCFG BKN003
FM181200 34013KT 9999 BKN025